Time;durP1;ratioP1;P1;durP2;ratioP2;P2;SDS_P1;SDS_P2;PMS_P1;PMS_P2;Temp;Humidity;BMP_temperature;BMP_pressure;BME280_temperature;BME280_humidity;BME280_pressure;Samples;Min_cycle;Max_cycle;Signal;HPM_P1;HPM_P2
2023/08/03 00:02:26;;;;;;;29.42;26.35;;;20.60;99.90;;;;;;5045430;28;20020;-78
2023/08/03 00:04:52;;;;;;;29.40;26.38;;;20.60;99.90;;;;;;5053575;28;20031;-78
2023/08/03 00:07:18;;;;;;;28.38;25.42;;;20.60;99.90;;;;;;5074169;28;20029;-78
2023/08/03 00:09:46;;;;;;;32.67;27.30;;;20.60;99.90;;;;;;5075576;28;20040;-79
2023/08/03 00:12:12;;;;;;;30.10;27.00;;;20.60;99.90;;;;;;5056154;28;20028;-78
2023/08/03 00:14:37;;;;;;;29.52;26.35;;;20.50;99.90;;;;;;5057688;28;20025;-78
2023/08/03 00:17:03;;;;;;;32.75;26.95;;;20.50;99.90;;;;;;5074361;28;20032;-80
2023/08/03 00:19:29;;;;;;;30.23;26.98;;;20.50;99.90;;;;;;5073482;28;20021;-78
2023/08/03 00:21:55;;;;;;;30.10;26.95;;;20.50;99.90;;;;;;5053497;28;20500;-79
2023/08/03 00:24:21;;;;;;;32.00;27.40;;;20.50;99.90;;;;;;5055122;28;20056;-81
2023/08/03 00:26:47;;;;;;;29.33;26.25;;;20.50;99.90;;;;;;5074594;28;20052;-79
2023/08/03 00:29:13;;;;;;;29.45;26.42;;;20.50;99.90;;;;;;5076519;28;20024;-78
2023/08/03 00:31:39;;;;;;;30.45;27.23;;;20.50;99.90;;;;;;5078730;28;20017;-80
2023/08/03 00:34:05;;;;;;;31.25;27.23;;;20.40;99.90;;;;;;5056599;28;20543;-79
2023/08/03 00:36:31;;;;;;;30.15;27.17;;;20.50;99.90;;;;;;5071734;28;20021;-79
2023/08/03 00:38:56;;;;;;;30.50;27.45;;;20.40;99.90;;;;;;5053637;28;20025;-79
2023/08/03 00:41:22;;;;;;;31.02;27.60;;;20.40;99.90;;;;;;5071941;28;20486;-79
2023/08/03 00:43:48;;;;;;;33.38;28.38;;;20.40;99.90;;;;;;5053379;28;20028;-79
2023/08/03 00:46:14;;;;;;;31.98;28.77;;;20.40;99.90;;;;;;5068376;28;20021;-78
2023/08/03 00:48:40;;;;;;;32.67;28.45;;;20.40;99.90;;;;;;5052702;28;20489;-80
2023/08/03 00:51:06;;;;;;;31.17;27.92;;;20.40;99.90;;;;;;5066310;28;20029;-79
2023/08/03 00:53:32;;;;;;;34.13;28.55;;;20.30;99.90;;;;;;5073574;28;20045;-80
2023/08/03 00:55:58;;;;;;;32.42;27.23;;;20.30;99.90;;;;;;5053084;28;20124;-80
2023/08/03 00:58:24;;;;;;;34.92;29.73;;;20.30;99.90;;;;;;5072088;28;20031;-79
2023/08/03 01:00:50;;;;;;;33.95;30.27;;;20.30;99.90;;;;;;5075631;28;20091;-78
2023/08/03 01:03:16;;;;;;;34.80;28.33;;;20.30;99.90;;;;;;5053652;28;20028;-79
2023/08/03 01:05:41;;;;;;;31.30;28.17;;;20.30;99.90;;;;;;5060013;28;20024;-79
2023/08/03 01:08:07;;;;;;;33.35;28.80;;;20.30;99.90;;;;;;5073578;28;20025;-79
2023/08/03 01:10:33;;;;;;;35.08;29.73;;;20.20;99.90;;;;;;5061154;28;20040;-80
2023/08/03 01:12:59;;;;;;;36.05;29.25;;;20.30;99.90;;;;;;5073456;28;20024;-81
2023/08/03 01:15:25;;;;;;;34.88;31.13;;;20.20;99.90;;;;;;5085725;28;20466;-78
2023/08/03 01:17:52;;;;;;;42.40;30.70;;;20.20;99.90;;;;;;5057703;28;20112;-80
2023/08/03 01:20:23;;;;;;;36.88;30.20;;;20.20;99.90;;;;;;5053430;28;20032;-79
2023/08/03 01:22:49;;;;;;;33.33;29.08;;;20.20;99.90;;;;;;5056384;28;20115;-80
2023/08/03 01:25:15;;;;;;;39.25;31.35;;;20.20;99.90;;;;;;5072083;28;20116;-79
2023/08/03 01:27:45;;;;;;;34.75;30.92;;;20.20;99.90;;;;;;5073003;28;20052;-80
2023/08/03 01:30:11;;;;;;;33.50;28.23;;;20.10;99.90;;;;;;5055348;28;20028;-79
2023/08/03 01:32:37;;;;;;;32.03;28.45;;;20.10;99.90;;;;;;5055365;28;20027;-81
2023/08/03 01:35:03;;;;;;;33.45;29.98;;;20.10;99.90;;;;;;5073372;28;20111;-80
2023/08/03 01:37:29;;;;;;;34.13;30.10;;;20.10;99.90;;;;;;5073359;28;20013;-79
2023/08/03 01:39:55;;;;;;;33.95;29.98;;;20.10;99.90;;;;;;5054874;28;20102;-80
2023/08/03 01:42:21;;;;;;;33.35;29.85;;;20.10;99.90;;;;;;5067698;28;20017;-79
2023/08/03 01:44:47;;;;;;;33.30;29.95;;;20.10;99.90;;;;;;5048956;28;20036;-79
2023/08/03 01:47:13;;;;;;;30.83;27.70;;;20.10;99.90;;;;;;5073241;28;20016;-80
2023/08/03 01:49:39;;;;;;;40.53;28.98;;;20.10;99.90;;;;;;5072842;28;20107;-78
2023/08/03 01:52:05;;;;;;;31.02;27.38;;;20.10;99.90;;;;;;5056398;28;20023;-79
2023/08/03 01:54:31;;;;;;;32.05;28.85;;;20.10;99.90;;;;;;5076884;28;20024;-80
2023/08/03 01:56:57;;;;;;;31.27;27.83;;;20.00;99.90;;;;;;5073377;28;20020;-80
2023/08/03 01:59:23;;;;;;;35.83;27.73;;;20.10;99.90;;;;;;5047128;28;20131;-80
2023/08/03 02:01:49;;;;;;;33.20;26.55;;;20.10;99.90;;;;;;5070635;28;20020;-79
2023/08/03 02:04:14;;;;;;;34.05;27.48;;;20.10;99.90;;;;;;5072376;28;20025;-80
2023/08/03 02:06:40;;;;;;;30.20;26.95;;;20.10;99.90;;;;;;5072535;28;20078;-78
2023/08/03 02:09:06;;;;;;;30.67;26.23;;;20.10;99.90;;;;;;5072380;28;20024;-79
2023/08/03 02:11:34;;;;;;;31.02;27.48;;;20.10;99.90;;;;;;5072027;28;20063;-78
2023/08/03 02:14:00;;;;;;;28.38;24.98;;;20.20;99.90;;;;;;5054381;28;20401;-78
2023/08/03 02:16:26;;;;;;;28.13;25.08;;;20.20;99.90;;;;;;5068078;28;20033;-78
2023/08/03 02:18:52;;;;;;;27.15;24.58;;;20.20;99.90;;;;;;5073382;28;20060;-79
2023/08/03 02:21:18;;;;;;;30.48;26.02;;;20.10;99.90;;;;;;5057542;28;20076;-81
2023/08/03 02:23:44;;;;;;;28.17;24.77;;;20.20;99.90;;;;;;5076016;28;20024;-80
2023/08/03 02:26:10;;;;;;;30.33;24.38;;;20.20;99.90;;;;;;5051184;28;20116;-79
2023/08/03 02:28:36;;;;;;;27.02;23.83;;;20.20;99.90;;;;;;5055099;28;20043;-79
2023/08/03 02:31:01;;;;;;;25.77;22.85;;;20.20;99.90;;;;;;5074957;28;20387;-80
2023/08/03 02:33:27;;;;;;;27.65;23.30;;;20.20;99.90;;;;;;5072976;28;20024;-80
2023/08/03 02:35:53;;;;;;;25.63;22.83;;;20.20;99.90;;;;;;5054322;28;20024;-79
2023/08/03 02:38:19;;;;;;;32.00;24.92;;;20.20;99.90;;;;;;5071891;28;20107;-81
2023/08/03 02:40:45;;;;;;;27.00;24.00;;;20.30;99.90;;;;;;5071861;28;20397;-79
2023/08/03 02:43:11;;;;;;;34.90;23.58;;;20.30;99.90;;;;;;5072499;28;20029;-79
2023/08/03 02:45:37;;;;;;;26.73;24.02;;;20.40;99.90;;;;;;5071872;28;20021;-80
2023/08/03 02:48:03;;;;;;;23.63;21.15;;;20.50;99.90;;;;;;5053979;28;20394;-79
2023/08/03 02:50:28;;;;;;;23.58;21.08;;;20.50;99.90;;;;;;5053160;28;20040;-80
2023/08/03 02:52:54;;;;;;;24.45;22.05;;;20.60;99.90;;;;;;5072068;28;20482;-80
2023/08/03 02:55:20;;;;;;;23.33;20.60;;;20.70;99.90;;;;;;5053543;28;20032;-80
2023/08/03 02:57:46;;;;;;;21.98;19.67;;;20.80;99.90;;;;;;5052071;28;20064;-80
2023/08/03 03:00:12;;;;;;;20.98;18.77;;;20.90;99.90;;;;;;5046617;28;20121;-80
2023/08/03 03:02:38;;;;;;;23.70;20.05;;;21.10;99.90;;;;;;5077142;28;20020;-79
2023/08/03 03:05:04;;;;;;;22.15;19.80;;;21.30;99.90;;;;;;5075880;28;20085;-79
2023/08/03 03:07:34;;;;;;;22.02;18.67;;;21.50;99.90;;;;;;5073827;28;20023;-80
2023/08/03 03:10:00;;;;;;;20.05;17.70;;;21.60;99.90;;;;;;5049890;28;20091;-81
2023/08/03 03:12:26;;;;;;;20.50;18.40;;;21.70;99.90;;;;;;5051120;28;20031;-79
2023/08/03 03:14:52;;;;;;;20.60;17.95;;;21.80;99.90;;;;;;5061884;28;20028;-80
2023/08/03 03:17:18;;;;;;;20.10;17.90;;;21.80;99.90;;;;;;5076011;28;20441;-79
2023/08/03 03:19:44;;;;;;;19.65;17.75;;;21.80;99.90;;;;;;5054762;28;20029;-81
2023/08/03 03:22:11;;;;;;;18.85;16.50;;;21.80;99.90;;;;;;5064029;28;20071;-79
2023/08/03 03:24:37;;;;;;;18.58;16.70;;;21.90;99.90;;;;;;5071099;28;20382;-80
2023/08/03 03:27:03;;;;;;;21.73;16.50;;;21.80;99.90;;;;;;5053313;28;20024;-80
2023/08/03 03:29:29;;;;;;;23.70;16.23;;;21.80;99.90;;;;;;5057234;28;20470;-79
2023/08/03 03:31:55;;;;;;;20.90;17.50;;;21.80;99.90;;;;;;5059546;28;20040;-80
2023/08/03 03:34:21;;;;;;;20.40;16.88;;;21.80;99.90;;;;;;5057258;28;20273;-78
2023/08/03 03:36:47;;;;;;;25.90;18.33;;;21.70;99.90;;;;;;5075739;28;20046;-80
2023/08/03 03:39:13;;;;;;;19.33;17.27;;;21.70;99.90;;;;;;5063005;28;20043;-79
2023/08/03 03:41:38;;;;;;;20.92;17.42;;;21.70;99.90;;;;;;5079369;28;20084;-78
2023/08/03 03:44:04;;;;;;;25.83;17.52;;;21.80;99.90;;;;;;5086269;28;20024;-78
2023/08/03 03:46:30;;;;;;;18.80;16.90;;;21.80;99.90;;;;;;5079229;28;20028;-80
2023/08/03 03:48:56;;;;;;;19.58;16.42;;;21.90;99.90;;;;;;5056821;28;20505;-79
2023/08/03 03:51:22;;;;;;;20.60;18.13;;;21.90;99.90;;;;;;5050200;28;20512;-81
2023/08/03 03:53:48;;;;;;;23.35;17.73;;;21.80;99.90;;;;;;5074303;28;20537;-80
2023/08/03 03:56:14;;;;;;;22.05;16.27;;;21.90;99.90;;;;;;5057664;28;20032;-79
2023/08/03 03:58:40;;;;;;;17.40;15.63;;;21.90;99.90;;;;;;5058655;28;20032;-79
2023/08/03 04:01:06;;;;;;;20.40;16.05;;;21.90;99.90;;;;;;5075907;28;20032;-81
2023/08/03 04:03:32;;;;;;;19.98;16.00;;;22.00;99.90;;;;;;5074043;28;20146;-78
2023/08/03 04:05:58;;;;;;;21.58;16.38;;;22.20;99.90;;;;;;5073858;28;20032;-79
2023/08/03 04:08:24;;;;;;;19.25;15.88;;;22.40;99.90;;;;;;5073651;28;20020;-80
2023/08/03 04:10:49;;;;;;;21.00;16.53;;;22.50;99.80;;;;;;5027427;28;1334617;-79
2023/08/03 04:13:15;;;;;;;19.30;14.27;;;22.60;99.30;;;;;;5056995;28;20033;-79
2023/08/03 04:15:41;;;;;;;18.33;14.80;;;22.70;99.10;;;;;;5074034;28;20028;-79
2023/08/03 04:18:07;;;;;;;21.80;15.68;;;22.90;98.80;;;;;;5057018;28;20029;-78
2023/08/03 04:20:33;;;;;;;23.30;15.00;;;22.90;98.30;;;;;;5071167;28;20041;-80
2023/08/03 04:22:58;;;;;;;24.38;14.98;;;22.90;97.70;;;;;;5058523;28;20025;-79
2023/08/03 04:25:24;;;;;;;21.48;16.40;;;22.90;97.90;;;;;;5060571;28;20031;-79
2023/08/03 04:27:50;;;;;;;20.42;15.13;;;23.00;97.70;;;;;;5079189;28;20432;-79
2023/08/03 04:30:16;;;;;;;20.80;14.70;;;22.90;97.50;;;;;;5068354;28;20055;-79
2023/08/03 04:32:42;;;;;;;24.15;15.50;;;23.00;97.40;;;;;;5067306;28;20016;-79
2023/08/03 04:35:09;;;;;;;19.85;15.18;;;23.10;97.40;;;;;;5056345;28;20036;-79
2023/08/03 04:37:35;;;;;;;16.10;14.40;;;23.20;96.60;;;;;;5074737;28;20046;-80
2023/08/03 04:40:02;;;;;;;20.90;14.00;;;23.30;96.50;;;;;;5074007;28;20035;-81
2023/08/03 04:42:27;;;;;;;20.52;15.27;;;23.30;95.90;;;;;;5056706;28;20028;-78
2023/08/03 04:44:53;;;;;;;15.10;13.55;;;23.40;96.00;;;;;;5073579;28;20040;-79
2023/08/03 04:47:19;;;;;;;14.63;13.13;;;23.50;95.60;;;;;;5074580;28;20381;-81
2023/08/03 04:49:45;;;;;;;17.92;14.23;;;23.60;95.50;;;;;;5052342;28;20040;-79
2023/08/03 04:52:11;;;;;;;22.73;13.18;;;23.70;95.10;;;;;;5084860;28;20032;-79
2023/08/03 04:54:37;;;;;;;18.08;14.05;;;23.70;95.00;;;;;;5052430;28;20565;-81
2023/08/03 04:57:03;;;;;;;17.02;14.93;;;23.70;94.70;;;;;;5070039;28;20024;-81
2023/08/03 04:59:29;;;;;;;23.90;16.15;;;23.80;94.80;;;;;;5042064;28;20032;-81
2023/08/03 05:01:55;;;;;;;15.35;13.75;;;24.10;94.30;;;;;;5076592;28;20028;-80
2023/08/03 05:04:21;;;;;;;16.95;14.32;;;24.70;93.80;;;;;;5074357;28;20107;-82
2023/08/03 05:06:47;;;;;;;17.65;15.27;;;26.10;90.70;;;;;;5073939;28;20020;-81
2023/08/03 05:09:13;;;;;;;17.45;15.70;;;26.10;90.80;;;;;;5075125;28;20028;-81
2023/08/03 05:11:39;;;;;;;17.70;15.90;;;26.60;89.60;;;;;;5062697;28;20048;-80
2023/08/03 05:14:05;;;;;;;15.73;14.15;;;27.30;87.40;;;;;;5073893;28;20025;-80
2023/08/03 05:16:30;;;;;;;17.60;14.57;;;28.30;84.90;;;;;;5073312;28;20024;-81
2023/08/03 05:18:56;;;;;;;15.75;13.88;;;29.30;81.40;;;;;;5052385;28;20390;-80
2023/08/03 05:21:23;;;;;;;15.90;13.98;;;29.70;78.40;;;;;;5051853;28;20037;-80
2023/08/03 05:23:48;;;;;;;16.53;14.83;;;30.30;76.40;;;;;;5042223;28;20056;-81
2023/08/03 05:26:14;;;;;;;16.60;14.80;;;30.80;73.40;;;;;;5073477;28;20060;-80
2023/08/03 05:28:40;;;;;;;24.10;15.53;;;31.40;71.00;;;;;;5069376;28;20017;-81
2023/08/03 05:31:06;;;;;;;21.13;12.70;;;32.00;69.10;;;;;;5073982;28;20044;-82
2023/08/03 05:33:35;;;;;;;17.07;13.53;;;32.30;67.30;;;;;;5075147;28;20021;-81
2023/08/03 05:36:01;;;;;;;24.42;14.02;;;32.80;65.50;;;;;;5074750;28;20039;-80
2023/08/03 05:38:27;;;;;;;28.02;13.60;;;33.20;64.10;;;;;;5052223;28;20032;-81
2023/08/03 05:40:54;;;;;;;18.63;13.30;;;33.70;63.10;;;;;;5072109;28;20045;-80
2023/08/03 05:43:26;;;;;;;22.33;13.57;;;34.10;61.20;;;;;;5048485;28;20619;-81
2023/08/03 05:46:05;;;;;;;17.50;13.90;;;34.30;60.00;;;;;;5074597;28;20115;-80
2023/08/03 05:48:31;;;;;;;20.65;12.68;;;34.50;58.90;;;;;;5052482;28;20020;-82
2023/08/03 05:50:58;;;;;;;15.05;12.15;;;34.40;59.30;;;;;;5075129;28;20476;-81
2023/08/03 05:53:24;;;;;;;17.05;12.82;;;34.70;59.10;;;;;;5081045;28;20625;-81
2023/08/03 05:55:50;;;;;;;18.08;11.93;;;35.10;58.10;;;;;;5066103;28;20036;-81
2023/08/03 05:58:17;;;;;;;21.02;11.43;;;35.80;57.10;;;;;;5065684;28;20021;-82
2023/08/03 06:00:47;;;;;;;16.85;11.68;;;36.50;56.10;;;;;;5071273;28;20055;-83
2023/08/03 06:03:15;;;;;;;18.08;12.35;;;37.00;54.00;;;;;;5074789;28;20335;-81
2023/08/03 06:05:44;;;;;;;22.55;12.70;;;37.60;53.00;;;;;;5075019;28;20025;-82
2023/08/03 06:08:12;;;;;;;22.58;12.40;;;38.10;51.90;;;;;;5072626;28;20032;-83
2023/08/03 06:10:39;;;;;;;24.83;10.90;;;38.50;51.30;;;;;;5050920;28;20053;-80
2023/08/03 06:13:07;;;;;;;14.38;11.13;;;38.90;50.60;;;;;;5061914;28;20358;-79
2023/08/03 06:15:34;;;;;;;15.95;10.52;;;39.60;49.10;;;;;;5071075;28;20017;-87
2023/08/03 06:18:07;;;;;;;20.45;10.35;;;40.00;48.00;;;;;;5049795;28;20027;-87
2023/08/03 06:20:34;;;;;;;19.92;11.80;;;40.20;47.60;;;;;;5078997;28;20613;-84
2023/08/03 06:23:00;;;;;;;13.55;10.98;;;40.10;47.40;;;;;;5067343;28;20017;-85
2023/08/03 06:25:27;;;;;;;;;;;40.40;47.50;;;;;;5074202;28;20024;-83
2023/08/03 06:27:55;;;;;;;13.23;10.27;;;;;;;;;;5070347;28;19962;-84
2023/08/03 06:30:21;;;;;;;16.63;11.40;;;40.40;48.20;;;;;;5050428;28;20117;-83
2023/08/03 06:32:47;;;;;;;17.13;11.25;;;;;;;;;;5070977;28;20060;-80
2023/08/03 06:35:13;;;;;;;;;;;;;;;;;;5073640;28;20418;-83
2023/08/03 06:37:39;;;;;;;19.20;10.82;;;;;;;;;;5072468;28;19912;-83
2023/08/03 06:40:05;;;;;;;;;;;;;;;;;;5043008;28;20115;-82
2023/08/03 06:42:31;;;;;;;19.83;10.95;;;;;;;;;;5071966;28;19904;-83
2023/08/03 06:44:57;;;;;;;24.83;12.68;;;40.90;45.80;;;;;;5052431;28;20013;-83
2023/08/03 06:47:24;;;;;;;14.52;11.68;;;42.10;45.00;;;;;;5071594;28;20422;-81
2023/08/03 06:49:49;;;;;;;;;;;42.00;44.00;;;;;;5052071;28;20040;-82
2023/08/03 06:52:15;;;;;;;17.20;10.13;;;41.70;45.80;;;;;;5051971;28;19909;-82
2023/08/03 06:54:41;;;;;;;19.17;9.95;;;41.80;44.30;;;;;;5068564;28;20021;-82
2023/08/03 06:57:07;;;;;;;17.95;10.23;;;;;;;;;;5053716;28;20029;-83
2023/08/03 06:59:33;;;;;;;22.27;9.10;;;;;;;;;;5066981;28;20338;-82
2023/08/03 07:01:59;;;;;;;15.70;8.93;;;42.10;44.50;;;;;;5062411;28;20094;-82
2023/08/03 07:04:25;;;;;;;;;;;42.70;43.30;;;;;;5050776;28;20021;-83
2023/08/03 07:06:51;;;;;;;13.23;8.73;;;42.70;44.10;;;;;;5077088;28;19917;-82
2023/08/03 07:09:17;;;;;;;;;;;42.70;42.80;;;;;;5073084;28;20482;-83
2023/08/03 07:11:42;;;;;;;15.88;9.30;;;43.00;44.40;;;;;;5076889;28;19912;-83
2023/08/03 07:14:09;;;;;;;;;;;43.10;42.60;;;;;;5049303;28;20021;-84
2023/08/03 07:16:38;;;;;;;13.30;6.50;;;;;;;;;;5053296;28;20285;-84
2023/08/03 07:19:06;;;;;;;13.18;7.00;;;43.30;43.40;;;;;;5057443;28;20120;-83
2023/08/03 07:21:32;;;;;;;10.10;6.35;;;43.80;41.00;;;;;;5065196;28;20027;-82
2023/08/03 07:23:58;;;;;;;18.05;6.25;;;;;;;;;;5076506;28;20024;-83
2023/08/03 07:26:24;;;;;;;11.00;6.18;;;44.00;41.00;;;;;;5052722;28;20029;-84
2023/08/03 07:28:50;;;;;;;13.13;6.68;;;44.80;40.40;;;;;;5044111;28;20021;-83
2023/08/03 07:31:16;;;;;;;13.73;7.07;;;45.40;39.50;;;;;;5072489;28;20028;-83
2023/08/03 07:33:42;;;;;;;12.85;6.68;;;45.80;39.00;;;;;;5072558;28;20009;-83
2023/08/03 07:36:14;;;;;;;7.50;5.53;;;45.90;38.60;;;;;;5071594;28;20131;-83
2023/08/03 07:38:40;;;;;;;14.10;6.55;;;45.20;38.50;;;;;;5058251;28;20017;-81
2023/08/03 07:41:06;;;;;;;10.35;5.28;;;44.50;39.70;;;;;;5071908;28;20514;-82
2023/08/03 07:43:32;;;;;;;12.40;6.22;;;44.60;40.00;;;;;;5054067;28;20035;-83
2023/08/03 07:45:58;;;;;;;12.80;6.15;;;44.10;40.10;;;;;;5072629;28;20416;-83
2023/08/03 07:48:24;;;;;;;18.60;7.53;;;43.90;40.00;;;;;;5054759;28;20025;-84
2023/08/03 07:50:50;;;;;;;9.05;6.35;;;44.10;40.40;;;;;;5055508;28;20031;-84
2023/08/03 07:53:16;;;;;;;14.25;6.43;;;44.60;40.20;;;;;;5071786;28;20048;-83
2023/08/03 07:55:42;;;;;;;13.32;6.70;;;45.20;39.60;;;;;;5078848;28;20016;-81
2023/08/03 07:58:07;;;;;;;10.05;5.85;;;45.90;39.10;;;;;;5083036;28;20051;-82
2023/08/03 08:00:33;;;;;;;11.20;5.88;;;46.30;38.10;;;;;;5064041;28;20068;-82
2023/08/03 08:03:02;;;;;;;9.38;5.90;;;46.40;38.00;;;;;;5080567;28;20032;-83
2023/08/03 08:05:28;;;;;;;12.40;6.28;;;46.40;38.00;;;;;;5057866;28;20436;-83
2023/08/03 08:07:54;;;;;;;9.43;5.43;;;46.70;38.10;;;;;;5049857;28;20116;-85
2023/08/03 08:10:20;;;;;;;10.25;6.25;;;45.50;38.60;;;;;;5062131;28;20048;-83
2023/08/03 08:12:46;;;;;;;12.48;6.72;;;43.60;40.00;;;;;;5079742;28;20012;-85
2023/08/03 08:15:12;;;;;;;8.52;5.60;;;43.50;41.30;;;;;;5063398;28;20096;-83
2023/08/03 08:17:37;;;;;;;11.32;5.90;;;43.80;40.50;;;;;;5063291;28;20370;-82
2023/08/03 08:20:04;;;;;;;14.00;5.93;;;44.00;39.80;;;;;;5045806;28;20037;-84
2023/08/03 08:22:30;;;;;;;12.80;5.82;;;43.00;40.30;;;;;;5062135;28;20425;-83
2023/08/03 08:24:56;;;;;;;11.57;5.15;;;42.90;40.90;;;;;;5081552;28;20025;-83
2023/08/03 08:27:22;;;;;;;8.05;4.85;;;43.50;40.70;;;;;;5056206;28;20029;-82
2023/08/03 08:29:48;;;;;;;;;;;42.60;39.60;;;;;;5073794;28;20497;-82
2023/08/03 08:32:14;;;;;;;11.40;5.57;;;40.90;42.00;;;;;;5067392;28;19908;-82
2023/08/03 08:34:40;;;;;;;;;;;41.20;42.20;;;;;;5076561;28;20023;-82
2023/08/03 08:37:06;;;;;;;9.30;4.30;;;42.50;42.00;;;;;;5043015;28;19923;-81
2023/08/03 08:39:32;;;;;;;10.27;4.97;;;42.60;40.70;;;;;;5056917;28;20425;-82
2023/08/03 08:41:57;;;;;;;15.45;6.72;;;43.00;40.60;;;;;;5074668;28;20032;-83
2023/08/03 08:44:23;;;;;;;12.52;5.03;;;43.70;40.20;;;;;;5057365;28;20040;-85
2023/08/03 08:46:49;;;;;;;6.47;4.50;;;44.20;39.10;;;;;;5025392;28;20055;-81
2023/08/03 08:49:15;;;;;;;10.27;4.72;;;44.90;37.80;;;;;;5048753;28;20124;-82
2023/08/03 08:51:42;;;;;;;12.85;4.63;;;;;;;;;;5061858;28;20508;-83
2023/08/03 08:54:08;;;;;;;8.90;4.55;;;44.00;38.20;;;;;;5063478;28;20013;-83
2023/08/03 08:56:34;;;;;;;9.27;4.50;;;41.90;41.80;;;;;;5062453;28;20478;-82
2023/08/03 08:59:01;;;;;;;8.75;4.97;;;43.20;40.70;;;;;;5058350;28;20131;-83
2023/08/03 09:01:27;;;;;;;12.48;5.93;;;43.60;39.50;;;;;;5070034;28;20033;-82
2023/08/03 09:03:56;;;;;;;;;;;41.60;40.30;;;;;;5071642;28;20021;-81
2023/08/03 09:06:22;;;;;;;12.10;6.20;;;39.50;41.80;;;;;;5067859;28;19905;-82
2023/08/03 09:08:51;;;;;;;8.93;4.90;;;38.80;45.00;;;;;;5074809;28;20084;-82
2023/08/03 09:11:17;;;;;;;6.00;5.00;;;38.90;44.30;;;;;;5057973;28;20520;-82
2023/08/03 09:13:48;;;;;;;11.07;5.47;;;38.30;44.60;;;;;;5057870;28;20028;-83
2023/08/03 09:16:26;;;;;;;17.05;7.10;;;37.00;46.30;;;;;;5058277;28;20024;-82
2023/08/03 09:18:52;;;;;;;11.30;6.32;;;37.00;47.70;;;;;;5081165;28;20028;-82
2023/08/03 09:21:19;;;;;;;15.07;5.43;;;38.00;46.40;;;;;;5072493;28;20040;-82
2023/08/03 09:23:46;;;;;;;9.57;5.70;;;39.20;44.80;;;;;;5057219;28;20424;-83
2023/08/03 09:26:12;;;;;;;7.07;5.22;;;38.70;43.60;;;;;;5075009;28;20386;-82
2023/08/03 09:28:43;;;;;;;7.15;5.35;;;37.90;45.50;;;;;;5075471;28;20340;-83
2023/08/03 09:31:10;;;;;;;6.97;4.97;;;37.80;45.50;;;;;;5076730;28;20028;-83
2023/08/03 09:33:36;;;;;;;12.00;5.93;;;38.60;44.50;;;;;;5057059;28;20024;-83
2023/08/03 09:36:04;;;;;;;;;;;38.90;44.60;;;;;;5063934;28;20031;-82
2023/08/03 09:38:30;;;;;;;10.23;5.65;;;39.60;44.30;;;;;;5073242;28;19904;-84
2023/08/03 09:40:57;;;;;;;13.23;6.57;;;40.70;43.30;;;;;;5075476;28;20112;-82
2023/08/03 09:43:24;;;;;;;15.13;7.38;;;41.40;41.90;;;;;;5056305;28;20028;-84
2023/08/03 09:45:52;;;;;;;21.63;6.88;;;41.00;42.50;;;;;;5065790;28;20047;-83
2023/08/03 09:48:22;;;;;;;10.35;5.30;;;40.30;43.00;;;;;;5051184;28;20139;-83
2023/08/03 09:50:54;;;;;;;10.00;5.05;;;40.80;43.00;;;;;;5076384;28;20025;-84
2023/08/03 09:53:24;;;;;;;7.80;4.80;;;41.20;41.90;;;;;;5058593;28;20025;-82
2023/08/03 09:56:00;;;;;;;8.60;4.55;;;41.60;41.40;;;;;;5072148;28;20029;-84
2023/08/03 09:58:55;;;;;;;8.00;5.22;;;41.50;40.70;;;;;;5058372;28;20061;-83
2023/08/03 10:01:24;;;;;;;10.15;5.47;;;40.20;41.60;;;;;;5076293;28;20056;-83
2023/08/03 10:03:55;;;;;;;9.07;5.20;;;40.20;42.60;;;;;;5041762;28;20028;-82
2023/08/03 10:06:27;;;;;;;14.98;7.20;;;40.60;42.10;;;;;;5066223;28;20017;-84
2023/08/03 10:09:06;;;;;;;9.32;5.35;;;39.90;42.10;;;;;;5075510;28;20024;-86
2023/08/03 10:11:53;;;;;;;19.80;6.88;;;;;;;;;;5065466;28;20048;-82
2023/08/03 10:14:27;;;;;;;20.75;8.48;;;38.20;43.20;;;;;;5062562;28;20055;-82
2023/08/03 10:16:54;;;;;;;13.23;6.70;;;36.50;48.20;;;;;;5076268;28;20024;-84
2023/08/03 10:19:24;;;;;;;12.20;5.72;;;;;;;;;;5061993;28;20054;-83
2023/08/03 10:21:50;;;;;;;10.63;5.57;;;39.70;44.30;;;;;;5080086;28;20033;-83
2023/08/03 10:24:18;;;;;;;10.57;5.68;;;40.90;42.20;;;;;;5078044;28;20017;-83
2023/08/03 10:26:51;;;;;;;13.18;6.30;;;;;;;;;;5075750;28;20059;-82
2023/08/03 10:29:53;;;;;;;9.07;5.00;;;41.70;41.30;;;;;;5064419;28;20054;-84
2023/08/03 10:32:22;;;;;;;10.38;5.50;;;40.90;39.90;;;;;;5056559;28;20081;-82
2023/08/03 10:34:51;;;;;;;10.57;6.40;;;38.20;43.10;;;;;;5073309;28;20028;-83
2023/08/03 10:37:17;;;;;;;13.48;7.55;;;37.80;43.90;;;;;;5057757;28;20021;-83
2023/08/03 10:39:59;;;;;;;11.55;6.70;;;37.30;45.60;;;;;;5045006;28;20028;-81
2023/08/03 10:42:30;;;;;;;12.63;6.97;;;36.40;46.00;;;;;;5069217;28;20120;-82
2023/08/03 10:45:22;;;;;;;10.02;7.13;;;34.50;47.60;;;;;;5072012;28;20020;-82
2023/08/03 10:47:48;;;;;;;15.93;7.57;;;34.10;49.40;;;;;;5059781;28;20052;-83
2023/08/03 10:50:14;;;;;;;;;;;32.50;51.90;;;;;;5076445;28;20051;-82
2023/08/03 10:52:40;;;;;;;10.27;6.80;;;32.40;52.50;;;;;;5068420;28;19985;-82
2023/08/03 10:55:33;;;;;;;8.85;6.75;;;31.80;55.00;;;;;;5054902;28;20043;-81
2023/08/03 10:57:59;;;;;;;12.27;7.35;;;31.90;55.00;;;;;;5061405;28;20033;-83
2023/08/03 11:00:25;;;;;;;19.17;8.03;;;32.00;55.30;;;;;;5070493;28;20037;-82
2023/08/03 11:02:51;;;;;;;14.48;7.53;;;32.10;55.60;;;;;;5063018;28;20017;-81
2023/08/03 11:05:17;;;;;;;9.73;6.60;;;32.20;55.30;;;;;;5055316;28;20035;-83
2023/08/03 11:07:45;;;;;;;7.80;6.68;;;32.20;55.10;;;;;;5076477;28;20024;-82
2023/08/03 11:10:14;;;;;;;11.95;7.53;;;32.20;55.20;;;;;;5056989;28;20125;-83
2023/08/03 11:12:41;;;;;;;12.60;7.35;;;32.20;55.30;;;;;;5076527;28;20016;-81
2023/08/03 11:15:08;;;;;;;13.52;6.97;;;32.40;54.90;;;;;;5073761;28;20025;-83
2023/08/03 11:17:34;;;;;;;;;;;32.60;54.80;;;;;;5061783;28;20465;-81
2023/08/03 11:20:03;;;;;;;10.85;7.05;;;32.60;53.80;;;;;;5072616;28;20330;-82
2023/08/03 11:22:30;;;;;;;11.38;7.32;;;32.50;54.70;;;;;;5069990;28;20021;-83
2023/08/03 11:25:01;;;;;;;7.95;6.38;;;32.40;54.50;;;;;;5050139;28;20028;-82
2023/08/03 11:27:27;;;;;;;7.15;6.40;;;32.20;55.20;;;;;;5064922;28;20051;-81
2023/08/03 11:29:53;;;;;;;10.85;6.75;;;32.10;55.40;;;;;;5059183;28;20111;-83
2023/08/03 11:32:31;;;;;;;15.75;6.88;;;32.10;55.30;;;;;;5078775;28;20021;-83
2023/08/03 11:35:01;;;;;;;12.32;7.53;;;31.90;55.50;;;;;;5078707;28;20016;-81
2023/08/03 11:37:31;;;;;;;7.00;6.05;;;31.90;55.40;;;;;;5079039;28;20028;-82
2023/08/03 11:39:59;;;;;;;11.35;6.93;;;31.80;55.30;;;;;;5058172;28;20056;-82
2023/08/03 11:42:25;;;;;;;10.98;6.15;;;31.80;56.10;;;;;;5057226;28;20032;-82
2023/08/03 11:45:40;;;;;;;7.43;5.88;;;31.90;53.80;;;;;;5072422;28;20029;-81
2023/08/03 11:48:06;;;;;;;11.43;7.65;;;31.50;54.70;;;;;;5055155;28;20071;-82
2023/08/03 11:50:33;;;;;;;11.88;7.03;;;31.20;55.50;;;;;;5076016;28;20020;-83
2023/08/03 11:53:00;;;;;;;9.70;7.18;;;31.30;55.90;;;;;;5066501;28;20071;-82
2023/08/03 11:55:30;;;;;;;13.07;7.80;;;31.40;55.70;;;;;;5080407;28;20389;-83
2023/08/03 11:58:09;;;;;;;10.82;6.90;;;31.70;55.70;;;;;;5075797;28;20032;-82
2023/08/03 12:00:39;;;;;;;10.80;7.00;;;31.90;56.00;;;;;;5049070;28;20469;-82
2023/08/03 12:03:05;;;;;;;7.95;6.70;;;32.30;56.20;;;;;;5068686;28;20031;-80
2023/08/03 12:05:52;;;;;;;9.23;6.20;;;32.10;53.20;;;;;;5055482;28;20028;-84
2023/08/03 12:08:21;;;;;;;11.88;6.30;;;32.00;53.40;;;;;;5086338;28;20024;-82
2023/08/03 12:11:03;;;;;;;8.68;5.57;;;31.90;54.00;;;;;;5080305;28;20045;-83
2023/08/03 12:13:29;;;;;;;10.20;6.43;;;32.00;54.20;;;;;;5049610;28;20017;-83
2023/08/03 12:15:55;;;;;;;18.13;7.37;;;31.90;55.90;;;;;;5069612;28;20029;-83
2023/08/03 12:18:25;;;;;;;11.00;6.87;;;31.80;55.70;;;;;;5057327;28;20371;-81
2023/08/03 12:20:51;;;;;;;18.48;6.45;;;31.80;56.10;;;;;;5069923;28;20067;-82
2023/08/03 12:23:17;;;;;;;14.65;7.22;;;31.70;56.20;;;;;;5059552;28;20017;-82
2023/08/03 12:25:44;;;;;;;7.03;6.07;;;31.60;56.10;;;;;;5060285;28;20055;-82
2023/08/03 12:28:10;;;;;;;7.57;6.18;;;31.40;56.10;;;;;;5058816;28;20487;-83
2023/08/03 12:30:37;;;;;;;12.10;7.85;;;31.30;54.80;;;;;;5076144;28;20371;-82
2023/08/03 12:33:03;;;;;;;;;;;31.10;55.70;;;;;;5055683;28;20029;-83
2023/08/03 12:35:29;;;;;;;15.95;7.22;;;31.00;55.90;;;;;;5059266;28;19927;-82
2023/08/03 12:37:55;;;;;;;14.47;7.57;;;30.80;57.20;;;;;;5054302;28;20036;-83
2023/08/03 12:40:21;;;;;;;14.18;6.78;;;30.70;59.20;;;;;;5050968;28;20029;-83
2023/08/03 12:42:47;;;;;;;12.52;6.47;;;30.50;57.70;;;;;;5067353;28;20078;-82